createdAt,value
2018-08-06T00:00:21.257Z,96.10
2018-08-06T00:02:49.602Z,96.30
2018-08-06T00:05:18.206Z,96.20
2018-08-06T00:07:46.584Z,96.10
2018-08-06T00:10:17.419Z,96.20
2018-08-06T00:12:45.771Z,96.30
2018-08-06T00:15:14.822Z,96.40
2018-08-06T00:17:43.232Z,96.50
2018-08-06T00:20:12.818Z,96.70
2018-08-06T00:22:41.555Z,97.30
2018-08-06T00:25:11.283Z,97.20
2018-08-06T00:27:39.978Z,97.30
2018-08-06T00:30:11.431Z,97.40
2018-08-06T00:32:40.647Z,97.60
2018-08-06T00:35:09.527Z,97.80
2018-08-06T00:37:38.069Z,98.00
2018-08-06T00:42:35.621Z,98.40
2018-08-06T00:45:04.843Z,98.60
2018-08-06T00:47:33.166Z,98.80
2018-08-06T00:50:01.459Z,98.90
2018-08-06T00:52:29.777Z,99.30
2018-08-06T00:54:58.065Z,99.50
2018-08-06T00:57:26.357Z,99.60
2018-08-06T00:59:54.670Z,99.90
2018-08-06T01:02:22.972Z,99.90
2018-08-06T01:04:51.278Z,99.90
2018-08-06T01:07:19.619Z,99.90
2018-08-06T01:09:47.894Z,99.90
2018-08-06T01:12:16.224Z,99.90
2018-08-06T01:14:44.527Z,99.90
2018-08-06T01:17:12.892Z,99.90
2018-08-06T01:19:41.157Z,99.90
2018-08-06T01:22:09.449Z,99.90
2018-08-06T01:24:37.726Z,99.90
2018-08-06T01:27:06.085Z,99.90
2018-08-06T01:32:02.457Z,99.90
2018-08-06T01:34:30.819Z,99.90
2018-08-06T01:36:59.105Z,99.90
2018-08-06T01:39:27.402Z,99.90
2018-08-06T01:41:55.702Z,99.90
2018-08-06T01:44:24.017Z,99.90
2018-08-06T01:46:52.334Z,99.90
2018-08-06T01:49:20.605Z,99.90
2018-08-06T01:51:48.940Z,99.90
2018-08-06T01:54:17.221Z,99.90
2018-08-06T01:56:45.493Z,99.90
2018-08-06T01:59:13.765Z,99.90
2018-08-06T02:01:42.066Z,99.90
2018-08-06T02:04:10.338Z,99.90
2018-08-06T02:09:07.687Z,99.90
2018-08-06T02:11:36.365Z,99.90
2018-08-06T02:14:04.917Z,99.90
2018-08-06T02:16:33.224Z,99.90
2018-08-06T02:19:01.522Z,99.90
2018-08-06T02:21:29.880Z,99.90
2018-08-06T02:23:58.177Z,99.90
2018-08-06T02:26:26.558Z,99.90
2018-08-06T02:28:54.910Z,99.90
2018-08-06T02:31:23.224Z,99.90
2018-08-06T02:33:51.512Z,99.90
2018-08-06T02:36:19.803Z,99.90
2018-08-06T02:38:48.136Z,99.90
2018-08-06T02:41:16.394Z,99.90
2018-08-06T02:43:44.701Z,99.90
2018-08-06T02:46:13.905Z,99.90
2018-08-06T02:48:42.234Z,99.90
2018-08-06T02:51:10.510Z,99.90
2018-08-06T02:53:38.802Z,99.90
2018-08-06T02:56:07.717Z,99.90
2018-08-06T02:58:35.998Z,99.90
2018-08-06T03:01:04.344Z,99.90
2018-08-06T03:03:32.723Z,99.90
2018-08-06T03:06:00.991Z,99.90
2018-08-06T03:08:29.409Z,99.90
2018-08-06T03:10:57.710Z,99.90
2018-08-06T03:13:25.983Z,99.90
2018-08-06T03:15:54.281Z,99.90
2018-08-06T03:18:22.562Z,99.90
2018-08-06T03:20:50.810Z,99.90
2018-08-06T03:23:19.087Z,99.90
2018-08-06T03:25:47.365Z,99.90
2018-08-06T03:28:15.700Z,99.90
2018-08-06T03:30:44.041Z,99.90
2018-08-06T03:33:12.385Z,99.90
2018-08-06T03:35:40.673Z,99.90
2018-08-06T03:38:08.961Z,99.90
2018-08-06T03:40:37.258Z,99.90
2018-08-06T03:43:05.718Z,99.90
2018-08-06T03:45:34.006Z,99.90
2018-08-06T03:48:02.277Z,99.90
2018-08-06T03:50:30.614Z,99.90
2018-08-06T03:52:58.928Z,99.90
2018-08-06T03:55:27.193Z,99.90
2018-08-06T03:57:55.493Z,99.90
2018-08-06T04:00:23.762Z,99.90
2018-08-06T04:02:52.081Z,99.90
2018-08-06T04:05:20.353Z,99.90
2018-08-06T04:07:48.650Z,99.90
2018-08-06T04:10:17.562Z,99.90
2018-08-06T04:12:46.084Z,99.90
2018-08-06T04:15:14.409Z,99.90
2018-08-06T04:17:43.888Z,99.90
2018-08-06T04:20:13.120Z,99.90
2018-08-06T04:22:42.269Z,99.90
2018-08-06T04:25:10.561Z,99.90
2018-08-06T04:27:39.013Z,99.90
2018-08-06T04:30:10.782Z,99.90
2018-08-06T04:32:39.075Z,99.90
2018-08-06T04:35:07.334Z,99.90
2018-08-06T04:37:35.601Z,99.90
2018-08-06T04:40:04.597Z,99.90
2018-08-06T04:42:32.885Z,99.90
2018-08-06T04:45:01.174Z,99.90
2018-08-06T04:47:29.474Z,99.90
2018-08-06T04:49:57.794Z,99.90
2018-08-06T04:52:26.071Z,99.90
2018-08-06T04:54:54.366Z,99.90
2018-08-06T04:57:22.697Z,99.90
2018-08-06T04:59:51.014Z,99.90
2018-08-06T05:02:19.722Z,99.90
2018-08-06T05:04:48.020Z,99.90
2018-08-06T05:07:16.302Z,99.90
2018-08-06T05:09:45.355Z,99.90
2018-08-06T05:12:13.722Z,99.90
2018-08-06T05:14:42.010Z,99.90
2018-08-06T05:17:10.259Z,99.90
2018-08-06T05:19:38.763Z,99.90
2018-08-06T05:22:07.442Z,99.90
2018-08-06T05:24:35.749Z,99.90
2018-08-06T05:27:04.063Z,99.90
2018-08-06T05:29:32.418Z,99.90
2018-08-06T05:32:00.717Z,99.90
2018-08-06T05:34:29.047Z,99.90
2018-08-06T05:36:57.406Z,99.90
2018-08-06T05:39:25.702Z,99.90
2018-08-06T05:41:54.211Z,99.90
2018-08-06T05:44:22.541Z,99.90
2018-08-06T05:46:50.853Z,99.90
2018-08-06T05:49:19.157Z,99.90
2018-08-06T05:51:47.432Z,99.90
2018-08-06T05:54:15.737Z,99.90
2018-08-06T05:56:44.038Z,99.90
2018-08-06T05:59:12.361Z,99.90
2018-08-06T06:01:40.750Z,99.90
2018-08-06T06:04:09.029Z,99.90
2018-08-06T06:06:37.374Z,99.90
2018-08-06T06:09:08.437Z,99.90
2018-08-06T06:11:36.885Z,99.90
2018-08-06T06:14:06.025Z,99.90
2018-08-06T06:16:34.347Z,99.90
2018-08-06T06:19:02.733Z,99.90
2018-08-06T06:21:31.198Z,99.90
2018-08-06T06:23:59.496Z,99.90
2018-08-06T06:26:27.771Z,99.90
2018-08-06T06:28:56.094Z,99.90
2018-08-06T06:31:24.941Z,99.90
2018-08-06T06:33:53.569Z,99.90
2018-08-06T06:36:21.934Z,99.90
2018-08-06T06:38:50.258Z,99.90
2018-08-06T06:41:18.518Z,99.90
2018-08-06T06:46:14.861Z,99.90
2018-08-06T06:48:43.179Z,99.90
2018-08-06T06:51:11.493Z,99.90
2018-08-06T06:53:39.842Z,99.90
2018-08-06T06:56:08.121Z,99.90
2018-08-06T06:58:36.388Z,99.90
2018-08-06T07:01:04.744Z,99.90
2018-08-06T07:03:33.002Z,99.90
2018-08-06T07:06:01.281Z,99.90
2018-08-06T07:08:29.548Z,99.90
2018-08-06T07:10:57.818Z,99.90
2018-08-06T07:13:26.105Z,99.90
2018-08-06T07:15:54.438Z,99.90
2018-08-06T07:18:22.741Z,99.90
2018-08-06T07:20:51.041Z,99.90
2018-08-06T07:23:19.360Z,99.90
2018-08-06T07:25:47.755Z,99.90
2018-08-06T07:28:16.055Z,99.90
2018-08-06T07:30:44.353Z,99.90
2018-08-06T07:33:12.630Z,99.90
2018-08-06T07:35:40.901Z,99.90
2018-08-06T07:38:09.164Z,99.90
2018-08-06T07:40:37.443Z,99.30
2018-08-06T07:43:05.965Z,98.20
2018-08-06T07:45:34.283Z,99.20
2018-08-06T07:48:02.563Z,99.00
2018-08-06T07:50:30.882Z,98.00
2018-08-06T07:52:59.182Z,98.60
2018-08-06T07:55:27.490Z,97.80
2018-08-06T07:57:55.826Z,96.40
2018-08-06T08:00:24.185Z,97.30
2018-08-06T08:02:52.478Z,97.00
2018-08-06T08:05:20.790Z,96.10
2018-08-06T08:07:49.284Z,94.80
2018-08-06T08:10:19.434Z,94.10
2018-08-06T08:12:47.742Z,92.20
2018-08-06T08:15:17.602Z,91.20
2018-08-06T08:17:47.020Z,90.70
2018-08-06T08:20:16.423Z,90.20
2018-08-06T08:22:44.905Z,88.30
2018-08-06T08:25:15.446Z,84.40
2018-08-06T08:27:44.101Z,82.30
2018-08-06T08:30:13.575Z,80.90
2018-08-06T08:32:41.901Z,78.80
2018-08-06T08:35:11.010Z,79.00
2018-08-06T08:37:39.528Z,77.50
2018-08-06T08:40:09.779Z,77.00
2018-08-06T08:42:38.189Z,76.80
2018-08-06T08:45:08.774Z,75.70
2018-08-06T08:47:37.206Z,75.00
2018-08-06T08:50:06.685Z,75.10
2018-08-06T08:52:34.982Z,75.80
2018-08-06T08:55:03.296Z,75.00
2018-08-06T08:57:31.573Z,74.90
2018-08-06T08:59:59.889Z,73.90
2018-08-06T09:02:28.184Z,72.90
2018-08-06T09:04:56.694Z,72.70
2018-08-06T09:07:25.094Z,71.00
2018-08-06T09:09:53.418Z,72.00
2018-08-06T09:12:21.747Z,70.80
2018-08-06T09:14:50.026Z,70.20
2018-08-06T09:17:18.349Z,67.80
2018-08-06T09:19:46.654Z,68.50
2018-08-06T09:22:14.957Z,71.00
2018-08-06T09:24:43.272Z,72.20
2018-08-06T09:27:11.692Z,69.60
2018-08-06T09:29:39.959Z,66.90
2018-08-06T09:32:08.234Z,67.10
2018-08-06T09:34:42.927Z,64.00
2018-08-06T09:37:11.190Z,64.30
2018-08-06T09:39:39.485Z,63.10
2018-08-06T09:42:07.941Z,64.60
2018-08-06T09:44:36.512Z,63.50
2018-08-06T09:47:04.837Z,65.30
2018-08-06T09:49:33.100Z,63.00
2018-08-06T09:52:01.397Z,61.20
2018-08-06T09:54:29.714Z,61.50
2018-08-06T09:56:58.017Z,64.20
2018-08-06T09:59:26.331Z,60.60
2018-08-06T10:01:56.715Z,58.90
2018-08-06T10:04:25.809Z,59.60
2018-08-06T10:06:54.167Z,58.50
2018-08-06T10:09:22.454Z,58.40
2018-08-06T10:11:50.872Z,59.10
2018-08-06T10:14:19.114Z,59.40
2018-08-06T10:16:47.421Z,60.70
2018-08-06T10:19:15.908Z,61.70
2018-08-06T10:21:44.241Z,62.50
2018-08-06T10:24:12.534Z,61.10
2018-08-06T10:26:40.839Z,60.40
2018-08-06T10:29:09.149Z,59.40
2018-08-06T10:34:05.507Z,56.90
2018-08-06T10:36:33.835Z,55.80
2018-08-06T10:39:02.146Z,55.50
2018-08-06T10:41:30.456Z,57.00
2018-08-06T10:43:58.754Z,55.50
2018-08-06T10:46:27.090Z,56.20
2018-08-06T10:48:55.362Z,57.60
2018-08-06T10:51:23.681Z,58.10
2018-08-06T10:53:51.996Z,59.50
2018-08-06T10:56:20.302Z,59.60
2018-08-06T10:58:48.585Z,61.50
2018-08-06T11:01:16.886Z,61.20
2018-08-06T11:03:45.141Z,63.60
2018-08-06T11:06:13.770Z,63.60
2018-08-06T11:08:42.096Z,67.40
2018-08-06T11:11:10.345Z,69.00
2018-08-06T11:13:38.642Z,68.00
2018-08-06T11:16:06.959Z,68.60
2018-08-06T11:18:35.226Z,69.50
2018-08-06T11:21:03.549Z,70.30
2018-08-06T11:23:31.853Z,70.50
2018-08-06T11:26:00.150Z,70.20
2018-08-06T11:28:28.476Z,67.60
2018-08-06T11:30:56.834Z,69.20
2018-08-06T11:33:25.129Z,69.20
2018-08-06T11:35:53.460Z,72.40
2018-08-06T11:40:49.806Z,72.30
2018-08-06T11:43:18.086Z,69.80
2018-08-06T11:45:46.362Z,72.90
2018-08-06T11:48:14.652Z,70.90
2018-08-06T11:50:42.941Z,69.80
2018-08-06T11:53:11.324Z,70.20
2018-08-06T11:55:39.625Z,71.90
2018-08-06T11:58:07.990Z,73.10
2018-08-06T12:00:36.378Z,73.60
2018-08-06T12:03:04.787Z,71.00
2018-08-06T12:05:33.293Z,70.80
2018-08-06T12:08:01.657Z,71.00
2018-08-06T12:10:29.947Z,72.00
2018-08-06T12:12:58.218Z,73.70
2018-08-06T12:15:26.488Z,73.10
2018-08-06T12:17:54.823Z,73.30
2018-08-06T12:20:23.138Z,73.70
2018-08-06T12:22:52.021Z,73.40
2018-08-06T12:25:20.365Z,75.20
2018-08-06T12:27:49.377Z,74.60
2018-08-06T12:30:21.213Z,73.00
2018-08-06T12:32:50.330Z,72.10
2018-08-06T12:35:18.914Z,73.10
2018-08-06T12:37:47.707Z,73.50
2018-08-06T12:40:18.235Z,77.60
2018-08-06T12:42:46.550Z,72.50
2018-08-06T12:45:15.815Z,73.60
2018-08-06T12:47:44.520Z,75.80
2018-08-06T12:50:13.897Z,74.30
2018-08-06T12:52:42.802Z,75.00
2018-08-06T12:55:12.494Z,73.20
2018-08-06T12:57:41.516Z,71.90
2018-08-06T13:00:15.421Z,72.10
2018-08-06T13:02:43.942Z,72.90
2018-08-06T13:05:12.574Z,71.50
2018-08-06T13:07:41.489Z,72.90
2018-08-06T13:10:09.874Z,74.70
2018-08-06T13:12:39.310Z,77.70
2018-08-06T13:15:09.372Z,73.40
2018-08-06T13:17:37.773Z,74.20
2018-08-06T13:20:06.573Z,71.50
2018-08-06T13:22:34.878Z,74.30
2018-08-06T13:25:03.183Z,73.70
2018-08-06T13:27:31.908Z,74.20
2018-08-06T13:30:00.264Z,73.00
2018-08-06T13:32:28.596Z,73.30
2018-08-06T13:34:56.877Z,74.40
2018-08-06T13:37:25.423Z,72.00
2018-08-06T13:39:53.731Z,73.10
2018-08-06T13:42:22.027Z,72.30
2018-08-06T13:47:18.425Z,74.30
2018-08-06T13:49:46.609Z,72.10
2018-08-06T13:52:14.946Z,73.80
2018-08-06T13:54:43.265Z,73.40
2018-08-06T13:57:11.549Z,72.50
2018-08-06T13:59:39.909Z,72.40
2018-08-06T14:02:08.266Z,72.10
2018-08-06T14:04:36.520Z,73.70
2018-08-06T14:07:04.892Z,73.40
2018-08-06T14:09:33.140Z,73.30
2018-08-06T14:12:01.445Z,73.60
2018-08-06T14:14:29.845Z,73.60
2018-08-06T14:16:58.225Z,73.90
2018-08-06T14:19:26.467Z,74.50
2018-08-06T14:21:54.806Z,75.60
2018-08-06T14:24:23.086Z,73.70
2018-08-06T14:26:51.365Z,78.00
2018-08-06T14:29:20.662Z,73.40
2018-08-06T14:31:49.002Z,73.20
2018-08-06T14:34:17.819Z,74.20
2018-08-06T14:36:46.025Z,74.00
2018-08-06T14:39:14.326Z,74.50
2018-08-06T14:41:43.729Z,73.40
2018-08-06T14:44:12.043Z,73.90
2018-08-06T14:46:40.357Z,73.80
2018-08-06T14:49:09.062Z,72.60
2018-08-06T14:51:37.345Z,72.80
2018-08-06T14:54:05.877Z,72.90
2018-08-06T14:56:34.173Z,73.30
2018-08-06T14:59:02.523Z,74.20
2018-08-06T15:01:30.797Z,76.20
2018-08-06T15:03:59.070Z,76.30
2018-08-06T15:06:27.396Z,79.10
2018-08-06T15:08:55.789Z,80.00
2018-08-06T15:11:24.108Z,76.30
2018-08-06T15:13:52.546Z,76.70
2018-08-06T15:16:20.978Z,76.70
2018-08-06T15:18:49.281Z,75.90
2018-08-06T15:21:17.582Z,79.60
2018-08-06T15:23:45.862Z,75.70
2018-08-06T15:26:14.140Z,77.20
2018-08-06T15:28:42.437Z,74.90
2018-08-06T15:31:10.686Z,76.10
2018-08-06T15:33:38.978Z,73.80
2018-08-06T15:36:07.304Z,74.70
2018-08-06T15:38:35.836Z,73.70
2018-08-06T15:41:04.122Z,74.10
2018-08-06T15:43:32.481Z,75.70
2018-08-06T15:46:00.725Z,76.20
2018-08-06T15:48:29.025Z,76.30
2018-08-06T15:50:57.386Z,77.70
2018-08-06T15:53:25.663Z,76.10
2018-08-06T15:55:53.903Z,75.50
2018-08-06T15:58:22.258Z,75.40
2018-08-06T16:00:50.638Z,78.00
2018-08-06T16:03:18.929Z,74.10
2018-08-06T16:05:47.305Z,74.70
2018-08-06T16:08:15.729Z,74.50
2018-08-06T16:10:44.355Z,74.20
2018-08-06T16:13:12.643Z,73.00
2018-08-06T16:15:40.910Z,73.10
2018-08-06T16:18:09.287Z,72.00
2018-08-06T16:20:37.586Z,74.70
2018-08-06T16:23:05.943Z,73.80
2018-08-06T16:25:34.288Z,74.20
2018-08-06T16:28:02.854Z,74.40
2018-08-06T16:30:31.129Z,73.80
2018-08-06T16:32:59.400Z,73.20
2018-08-06T16:35:27.705Z,71.70
2018-08-06T16:37:56.946Z,71.10
2018-08-06T16:40:25.278Z,71.50
2018-08-06T16:42:53.660Z,71.60
2018-08-06T16:45:22.003Z,76.80
2018-08-06T16:47:50.352Z,74.70
2018-08-06T16:50:18.960Z,74.00
2018-08-06T16:52:47.556Z,75.70
2018-08-06T16:55:15.675Z,74.20
2018-08-06T17:00:16.725Z,72.20
2018-08-06T17:02:45.253Z,72.40
2018-08-06T17:05:14.166Z,72.90
2018-08-06T17:07:43.882Z,71.40
2018-08-06T17:10:14.686Z,70.70
2018-08-06T17:12:44.207Z,71.40
2018-08-06T17:15:14.135Z,71.40
2018-08-06T17:17:42.800Z,72.60
2018-08-06T17:20:14.093Z,71.80
2018-08-06T17:22:43.138Z,73.50
2018-08-06T17:25:12.370Z,77.20
2018-08-06T17:27:41.036Z,72.90
2018-08-06T17:30:10.098Z,72.30
2018-08-06T17:32:38.922Z,71.40
2018-08-06T17:35:09.058Z,71.50
2018-08-06T17:37:37.391Z,71.50
2018-08-06T17:45:03.793Z,72.50
2018-08-06T17:47:32.120Z,71.60
2018-08-06T17:50:00.516Z,70.90
2018-08-06T17:52:28.811Z,71.40
2018-08-06T17:54:57.087Z,70.60
2018-08-06T17:57:25.413Z,70.20
2018-08-06T17:59:53.750Z,69.90
2018-08-06T18:02:22.052Z,71.60
2018-08-06T18:04:50.328Z,71.50
2018-08-06T18:07:18.624Z,72.10
2018-08-06T18:09:46.911Z,72.10
2018-08-06T18:12:15.233Z,71.70
2018-08-06T18:14:43.530Z,72.60
2018-08-06T18:17:11.941Z,72.70
2018-08-06T18:19:40.254Z,73.60
2018-08-06T18:22:08.543Z,73.70
2018-08-06T18:24:36.835Z,73.90
2018-08-06T18:27:05.735Z,74.60
2018-08-06T18:29:34.070Z,74.40
2018-08-06T18:32:02.518Z,74.90
2018-08-06T18:34:30.799Z,75.10
2018-08-06T18:36:59.107Z,74.60
2018-08-06T18:39:27.370Z,75.00
2018-08-06T18:41:55.687Z,76.20
2018-08-06T18:44:23.941Z,75.80
2018-08-06T18:46:52.204Z,76.20
2018-08-06T18:49:20.558Z,76.60
2018-08-06T18:51:49.154Z,77.10
2018-08-06T18:54:17.526Z,77.70
2018-08-06T18:56:45.823Z,79.50
2018-08-06T18:59:14.125Z,81.60
2018-08-06T19:01:42.421Z,83.10
2018-08-06T19:04:10.681Z,83.10
2018-08-06T19:06:39.019Z,82.30
2018-08-06T19:09:13.507Z,82.90
2018-08-06T19:11:42.309Z,82.90
2018-08-06T19:14:15.997Z,82.50
2018-08-06T19:16:44.321Z,83.40
2018-08-06T19:19:18.074Z,83.80
2018-08-06T19:21:46.386Z,84.60
2018-08-06T19:24:20.122Z,84.90
2018-08-06T19:26:48.599Z,85.20
2018-08-06T19:29:16.879Z,85.80
2018-08-06T19:31:45.161Z,86.20
2018-08-06T19:34:13.413Z,87.10
2018-08-06T19:36:47.054Z,87.80
2018-08-06T19:39:15.687Z,87.80
2018-08-06T19:41:44.093Z,87.70
2018-08-06T19:44:12.313Z,87.80
2018-08-06T19:46:40.566Z,88.50
2018-08-06T19:50:12.970Z,88.00
2018-08-06T19:52:41.309Z,88.50
2018-08-06T19:55:14.991Z,88.50
2018-08-06T19:57:43.578Z,88.60
2018-08-06T20:00:13.380Z,89.00
2018-08-06T20:02:42.488Z,88.90
2018-08-06T20:05:10.774Z,92.40
2018-08-06T20:07:39.108Z,93.60
2018-08-06T20:12:36.350Z,95.40
2018-08-06T20:15:05.466Z,94.00
2018-08-06T20:17:33.733Z,93.90
2018-08-06T20:20:02.009Z,95.50
2018-08-06T20:22:30.285Z,94.50
2018-08-06T20:24:58.550Z,95.80
2018-08-06T20:27:26.845Z,94.10
2018-08-06T20:29:55.106Z,93.70
2018-08-06T20:32:23.388Z,93.70
2018-08-06T20:34:51.649Z,93.20
2018-08-06T20:37:19.945Z,93.00
2018-08-06T20:39:48.194Z,92.70
2018-08-06T20:42:16.537Z,92.50
2018-08-06T20:44:44.936Z,92.50
2018-08-06T20:47:13.217Z,93.10
2018-08-06T20:49:41.495Z,93.60
2018-08-06T20:52:09.804Z,93.40
2018-08-06T20:54:38.071Z,93.60
2018-08-06T20:57:06.381Z,93.70
2018-08-06T20:59:34.665Z,93.90
2018-08-06T21:02:02.919Z,94.10
2018-08-06T21:04:31.174Z,94.20
2018-08-06T21:06:59.430Z,93.90
2018-08-06T21:11:55.693Z,93.70
2018-08-06T21:14:23.996Z,93.70
2018-08-06T21:16:52.275Z,93.60
2018-08-06T21:19:20.725Z,93.60
2018-08-06T21:21:48.973Z,93.70
2018-08-06T21:24:17.249Z,93.80
2018-08-06T21:26:45.526Z,93.80
2018-08-06T21:29:13.865Z,94.20
2018-08-06T21:31:42.095Z,94.60
2018-08-06T21:34:10.398Z,94.30
2018-08-06T21:36:38.689Z,94.70
2018-08-06T21:39:09.276Z,94.20
2018-08-06T21:41:37.531Z,94.00
2018-08-06T21:44:06.135Z,94.40
2018-08-06T21:46:34.393Z,94.30
2018-08-06T21:49:02.677Z,94.20
2018-08-06T21:51:31.014Z,94.20
2018-08-06T21:53:59.395Z,94.20
2018-08-06T21:56:27.703Z,93.60
2018-08-06T21:58:56.045Z,94.20
2018-08-06T22:01:24.409Z,93.70
2018-08-06T22:03:52.677Z,93.40
2018-08-06T22:06:20.967Z,93.50
2018-08-06T22:08:49.239Z,93.40
2018-08-06T22:11:17.562Z,93.00
2018-08-06T22:13:45.875Z,93.30
2018-08-06T22:16:14.145Z,93.20
2018-08-06T22:18:42.476Z,93.30
2018-08-06T22:21:10.750Z,93.70
2018-08-06T22:23:39.031Z,93.50
2018-08-06T22:26:07.326Z,93.40
2018-08-06T22:28:35.598Z,93.80
2018-08-06T22:31:03.885Z,94.30
2018-08-06T22:33:32.189Z,94.20
2018-08-06T22:36:00.455Z,94.10
2018-08-06T22:38:28.741Z,94.60
2018-08-06T22:40:57.025Z,94.20
2018-08-06T22:43:25.339Z,94.70
2018-08-06T22:45:53.597Z,94.90
2018-08-06T22:48:21.877Z,94.80
2018-08-06T22:50:50.128Z,95.00
2018-08-06T22:53:18.397Z,95.10
2018-08-06T22:55:58.250Z,95.20
2018-08-06T22:58:26.552Z,95.20
2018-08-06T23:00:54.821Z,95.30
2018-08-06T23:03:23.130Z,95.30
2018-08-06T23:05:51.426Z,95.50
2018-08-06T23:08:19.757Z,95.60
2018-08-06T23:10:48.046Z,95.50
2018-08-06T23:13:16.305Z,95.80
2018-08-06T23:15:45.544Z,95.90
2018-08-06T23:18:13.954Z,95.80
2018-08-06T23:20:42.254Z,95.40
2018-08-06T23:23:10.558Z,95.40
2018-08-06T23:25:38.821Z,95.30
2018-08-06T23:28:07.101Z,95.60
2018-08-06T23:30:35.417Z,95.70
2018-08-06T23:33:03.698Z,97.00
2018-08-06T23:35:32.086Z,95.80
2018-08-06T23:38:00.361Z,95.80
2018-08-06T23:40:28.670Z,96.00
2018-08-06T23:42:56.978Z,96.50
2018-08-06T23:45:25.273Z,96.40
2018-08-06T23:47:53.515Z,96.20
2018-08-06T23:50:21.863Z,96.50
2018-08-06T23:52:50.149Z,96.90
2018-08-06T23:55:19.017Z,96.80
2018-08-06T23:57:47.333Z,96.80
